sensor_id;sensor_type;location;lat;lon;timestamp;temperature;humidity
22968;DHT22;11650;48.106;-1.696;2023-04-01T00:00:57;10.40;99.90
22968;DHT22;11650;48.106;-1.696;2023-04-01T00:03:23;10.30;99.90
22968;DHT22;11650;48.106;-1.696;2023-04-01T00:05:50;10.30;99.90
22968;DHT22;11650;48.106;-1.696;2023-04-01T00:08:16;10.20;99.90
22968;DHT22;11650;48.106;-1.696;2023-04-01T00:10:42;10.20;99.90
22968;DHT22;11650;48.106;-1.696;2023-04-01T00:13:08;10.20;99.90
22968;DHT22;11650;48.106;-1.696;2023-04-01T00:15:34;10.20;99.90
22968;DHT22;11650;48.106;-1.696;2023-04-01T00:18:00;10.20;99.90
22968;DHT22;11650;48.106;-1.696;2023-04-01T00:20:26;10.10;99.90
22968;DHT22;11650;48.106;-1.696;2023-04-01T00:22:52;10.10;99.90
22968;DHT22;11650;48.106;-1.696;2023-04-01T00:25:18;10.10;99.90
22968;DHT22;11650;48.106;-1.696;2023-04-01T00:27:44;10.10;99.90
22968;DHT22;11650;48.106;-1.696;2023-04-01T00:30:10;10.10;99.90
22968;DHT22;11650;48.106;-1.696;2023-04-01T00:32:35;10.10;99.90
22968;DHT22;11650;48.106;-1.696;2023-04-01T00:35:01;10.10;99.90
22968;DHT22;11650;48.106;-1.696;2023-04-01T00:37:28;10.10;99.90
22968;DHT22;11650;48.106;-1.696;2023-04-01T00:39:54;10.10;99.90
22968;DHT22;11650;48.106;-1.696;2023-04-01T00:42:19;10.10;99.90
22968;DHT22;11650;48.106;-1.696;2023-04-01T00:44:49;10.10;99.90
22968;DHT22;11650;48.106;-1.696;2023-04-01T00:47:16;10.10;99.90
22968;DHT22;11650;48.106;-1.696;2023-04-01T00:49:45;10.10;99.90
22968;DHT22;11650;48.106;-1.696;2023-04-01T00:52:14;10.10;99.90
22968;DHT22;11650;48.106;-1.696;2023-04-01T00:54:42;10.20;99.90
22968;DHT22;11650;48.106;-1.696;2023-04-01T00:57:24;10.20;99.90
22968;DHT22;11650;48.106;-1.696;2023-04-01T00:59:53;10.20;99.90
22968;DHT22;11650;48.106;-1.696;2023-04-01T01:02:20;10.20;99.90
22968;DHT22;11650;48.106;-1.696;2023-04-01T01:04:46;10.20;99.90
22968;DHT22;11650;48.106;-1.696;2023-04-01T01:12:31;10.00;99.90
22968;DHT22;11650;48.106;-1.696;2023-04-01T01:18:30;10.00;99.90
22968;DHT22;11650;48.106;-1.696;2023-04-01T01:26:59;10.00;99.90
22968;DHT22;11650;48.106;-1.696;2023-04-01T01:32:17;10.00;99.90
22968;DHT22;11650;48.106;-1.696;2023-04-01T01:37:35;10.10;99.90
22968;DHT22;11650;48.106;-1.696;2023-04-01T01:40:06;10.10;99.90
22968;DHT22;11650;48.106;-1.696;2023-04-01T01:42:35;10.10;99.90
22968;DHT22;11650;48.106;-1.696;2023-04-01T01:45:04;10.10;99.90
22968;DHT22;11650;48.106;-1.696;2023-04-01T01:47:32;10.10;99.90
22968;DHT22;11650;48.106;-1.696;2023-04-01T01:49:59;10.10;99.90
22968;DHT22;11650;48.106;-1.696;2023-04-01T01:52:27;10.10;99.90
22968;DHT22;11650;48.106;-1.696;2023-04-01T01:54:57;10.00;99.90
22968;DHT22;11650;48.106;-1.696;2023-04-01T01:57:28;10.00;99.90
22968;DHT22;11650;48.106;-1.696;2023-04-01T01:59:58;9.90;99.90
22968;DHT22;11650;48.106;-1.696;2023-04-01T02:02:27;9.90;99.90
22968;DHT22;11650;48.106;-1.696;2023-04-01T02:04:57;9.80;99.90
22968;DHT22;11650;48.106;-1.696;2023-04-01T02:07:30;9.80;99.90
22968;DHT22;11650;48.106;-1.696;2023-04-01T02:09:57;9.90;99.90
22968;DHT22;11650;48.106;-1.696;2023-04-01T02:12:24;9.90;99.90
22968;DHT22;11650;48.106;-1.696;2023-04-01T02:14:53;9.90;99.90
22968;DHT22;11650;48.106;-1.696;2023-04-01T02:17:24;10.00;99.90
22968;DHT22;11650;48.106;-1.696;2023-04-01T02:20:00;9.90;99.90
22968;DHT22;11650;48.106;-1.696;2023-04-01T02:22:30;9.90;99.90
22968;DHT22;11650;48.106;-1.696;2023-04-01T02:24:59;9.80;99.90
22968;DHT22;11650;48.106;-1.696;2023-04-01T02:27:27;9.70;99.90
22968;DHT22;11650;48.106;-1.696;2023-04-01T02:29:53;9.70;99.90
22968;DHT22;11650;48.106;-1.696;2023-04-01T02:32:20;9.70;99.90
22968;DHT22;11650;48.106;-1.696;2023-04-01T02:34:47;9.70;99.90
22968;DHT22;11650;48.106;-1.696;2023-04-01T02:37:13;9.70;99.90
22968;DHT22;11650;48.106;-1.696;2023-04-01T02:39:39;9.70;99.90
22968;DHT22;11650;48.106;-1.696;2023-04-01T02:42:05;9.70;99.90
22968;DHT22;11650;48.106;-1.696;2023-04-01T02:44:31;9.70;99.90
22968;DHT22;11650;48.106;-1.696;2023-04-01T02:46:57;9.70;99.90
22968;DHT22;11650;48.106;-1.696;2023-04-01T02:49:22;9.70;99.90
22968;DHT22;11650;48.106;-1.696;2023-04-01T02:51:48;9.60;99.90
22968;DHT22;11650;48.106;-1.696;2023-04-01T02:54:14;9.60;99.90
22968;DHT22;11650;48.106;-1.696;2023-04-01T02:56:40;9.60;99.90
22968;DHT22;11650;48.106;-1.696;2023-04-01T02:59:05;9.50;99.90
22968;DHT22;11650;48.106;-1.696;2023-04-01T03:01:31;9.50;99.90
22968;DHT22;11650;48.106;-1.696;2023-04-01T03:03:57;9.50;99.90
22968;DHT22;11650;48.106;-1.696;2023-04-01T03:06:22;9.40;99.90
22968;DHT22;11650;48.106;-1.696;2023-04-01T03:08:48;9.40;99.90
22968;DHT22;11650;48.106;-1.696;2023-04-01T03:11:14;9.40;99.90
22968;DHT22;11650;48.106;-1.696;2023-04-01T03:13:40;9.40;99.90
22968;DHT22;11650;48.106;-1.696;2023-04-01T03:16:06;9.40;99.90
22968;DHT22;11650;48.106;-1.696;2023-04-01T03:18:31;9.40;99.90
22968;DHT22;11650;48.106;-1.696;2023-04-01T03:20:57;9.40;99.90
22968;DHT22;11650;48.106;-1.696;2023-04-01T03:23:23;9.40;99.90
22968;DHT22;11650;48.106;-1.696;2023-04-01T03:25:49;9.40;99.90
22968;DHT22;11650;48.106;-1.696;2023-04-01T03:28:15;9.30;99.90
22968;DHT22;11650;48.106;-1.696;2023-04-01T03:30:41;9.30;99.90
22968;DHT22;11650;48.106;-1.696;2023-04-01T03:33:07;9.20;99.90
22968;DHT22;11650;48.106;-1.696;2023-04-01T03:35:33;9.30;99.90
22968;DHT22;11650;48.106;-1.696;2023-04-01T03:38:01;9.20;99.90
22968;DHT22;11650;48.106;-1.696;2023-04-01T03:40:27;9.20;99.90
22968;DHT22;11650;48.106;-1.696;2023-04-01T03:42:52;9.20;99.90
22968;DHT22;11650;48.106;-1.696;2023-04-01T03:45:18;9.30;99.90
22968;DHT22;11650;48.106;-1.696;2023-04-01T03:47:44;9.30;99.90
22968;DHT22;11650;48.106;-1.696;2023-04-01T03:50:10;9.40;99.90
22968;DHT22;11650;48.106;-1.696;2023-04-01T03:52:36;9.40;99.90
22968;DHT22;11650;48.106;-1.696;2023-04-01T03:55:02;9.40;99.90
22968;DHT22;11650;48.106;-1.696;2023-04-01T03:57:28;9.50;99.90
22968;DHT22;11650;48.106;-1.696;2023-04-01T03:59:55;9.50;99.90
22968;DHT22;11650;48.106;-1.696;2023-04-01T04:02:21;9.60;99.90
22968;DHT22;11650;48.106;-1.696;2023-04-01T04:04:46;9.70;99.90
22968;DHT22;11650;48.106;-1.696;2023-04-01T04:07:12;9.70;99.90
22968;DHT22;11650;48.106;-1.696;2023-04-01T04:09:38;9.80;99.90
22968;DHT22;11650;48.106;-1.696;2023-04-01T04:12:04;9.80;99.90
22968;DHT22;11650;48.106;-1.696;2023-04-01T04:14:31;9.80;99.90
22968;DHT22;11650;48.106;-1.696;2023-04-01T04:16:57;9.80;99.90
22968;DHT22;11650;48.106;-1.696;2023-04-01T04:19:22;9.90;99.90
22968;DHT22;11650;48.106;-1.696;2023-04-01T04:21:48;9.90;99.90
22968;DHT22;11650;48.106;-1.696;2023-04-01T04:24:14;9.90;99.90
22968;DHT22;11650;48.106;-1.696;2023-04-01T04:26:39;9.90;99.90
22968;DHT22;11650;48.106;-1.696;2023-04-01T04:29:05;10.00;99.90
22968;DHT22;11650;48.106;-1.696;2023-04-01T04:31:31;10.00;99.90
22968;DHT22;11650;48.106;-1.696;2023-04-01T04:33:58;9.90;99.90
22968;DHT22;11650;48.106;-1.696;2023-04-01T04:36:24;9.90;99.90
22968;DHT22;11650;48.106;-1.696;2023-04-01T04:38:50;9.90;99.90
22968;DHT22;11650;48.106;-1.696;2023-04-01T04:41:17;9.80;99.90
22968;DHT22;11650;48.106;-1.696;2023-04-01T04:43:52;9.70;99.90
22968;DHT22;11650;48.106;-1.696;2023-04-01T04:46:19;9.70;99.90
22968;DHT22;11650;48.106;-1.696;2023-04-01T04:48:45;9.80;99.90
22968;DHT22;11650;48.106;-1.696;2023-04-01T04:51:18;9.80;99.90
22968;DHT22;11650;48.106;-1.696;2023-04-01T04:53:45;9.70;99.90
22968;DHT22;11650;48.106;-1.696;2023-04-01T04:56:11;9.70;99.90
22968;DHT22;11650;48.106;-1.696;2023-04-01T04:58:38;9.60;99.90
22968;DHT22;11650;48.106;-1.696;2023-04-01T05:01:09;9.60;99.90
22968;DHT22;11650;48.106;-1.696;2023-04-01T05:03:36;9.50;99.90
22968;DHT22;11650;48.106;-1.696;2023-04-01T05:06:02;9.50;99.90
22968;DHT22;11650;48.106;-1.696;2023-04-01T05:08:28;9.40;99.90
22968;DHT22;11650;48.106;-1.696;2023-04-01T05:10:53;9.40;99.90
22968;DHT22;11650;48.106;-1.696;2023-04-01T05:13:19;9.40;99.90
22968;DHT22;11650;48.106;-1.696;2023-04-01T05:15:45;9.30;99.90
22968;DHT22;11650;48.106;-1.696;2023-04-01T05:18:10;9.30;99.90
22968;DHT22;11650;48.106;-1.696;2023-04-01T05:20:36;9.30;99.90
22968;DHT22;11650;48.106;-1.696;2023-04-01T05:23:03;9.20;99.90
22968;DHT22;11650;48.106;-1.696;2023-04-01T05:25:28;9.20;99.90
22968;DHT22;11650;48.106;-1.696;2023-04-01T05:27:54;9.10;99.90
22968;DHT22;11650;48.106;-1.696;2023-04-01T05:30:20;9.10;99.90
22968;DHT22;11650;48.106;-1.696;2023-04-01T05:32:46;9.10;99.90
22968;DHT22;11650;48.106;-1.696;2023-04-01T05:35:11;9.00;99.90
22968;DHT22;11650;48.106;-1.696;2023-04-01T05:37:37;9.00;99.90
22968;DHT22;11650;48.106;-1.696;2023-04-01T05:40:04;8.90;99.90
22968;DHT22;11650;48.106;-1.696;2023-04-01T05:42:30;8.90;99.90
22968;DHT22;11650;48.106;-1.696;2023-04-01T05:44:55;8.90;99.90
22968;DHT22;11650;48.106;-1.696;2023-04-01T05:47:22;8.80;99.90
22968;DHT22;11650;48.106;-1.696;2023-04-01T05:49:47;8.90;99.90
22968;DHT22;11650;48.106;-1.696;2023-04-01T05:52:13;8.80;99.90
22968;DHT22;11650;48.106;-1.696;2023-04-01T05:54:39;8.80;99.90
22968;DHT22;11650;48.106;-1.696;2023-04-01T05:57:04;8.80;99.90
22968;DHT22;11650;48.106;-1.696;2023-04-01T05:59:30;8.80;99.90
22968;DHT22;11650;48.106;-1.696;2023-04-01T06:02:00;8.80;99.90
22968;DHT22;11650;48.106;-1.696;2023-04-01T06:04:28;8.80;99.90
22968;DHT22;11650;48.106;-1.696;2023-04-01T06:06:57;8.90;99.90
22968;DHT22;11650;48.106;-1.696;2023-04-01T06:09:30;8.90;99.90
22968;DHT22;11650;48.106;-1.696;2023-04-01T06:12:13;8.90;99.90
22968;DHT22;11650;48.106;-1.696;2023-04-01T06:25:58;8.90;99.90
22968;DHT22;11650;48.106;-1.696;2023-04-01T06:53:38;9.20;99.90
22968;DHT22;11650;48.106;-1.696;2023-04-01T06:56:10;9.30;99.90
22968;DHT22;11650;48.106;-1.696;2023-04-01T06:59:02;9.30;99.90
22968;DHT22;11650;48.106;-1.696;2023-04-01T07:01:32;9.40;99.90
22968;DHT22;11650;48.106;-1.696;2023-04-01T07:04:05;9.50;99.90
22968;DHT22;11650;48.106;-1.696;2023-04-01T07:06:36;9.70;99.90
22968;DHT22;11650;48.106;-1.696;2023-04-01T07:09:10;9.70;99.90
22968;DHT22;11650;48.106;-1.696;2023-04-01T07:11:38;9.80;99.90
22968;DHT22;11650;48.106;-1.696;2023-04-01T07:14:32;9.80;99.90
22968;DHT22;11650;48.106;-1.696;2023-04-01T07:17:15;10.00;99.90
22968;DHT22;11650;48.106;-1.696;2023-04-01T07:20:31;10.10;99.90
22968;DHT22;11650;48.106;-1.696;2023-04-01T07:22:43;10.20;99.90
22968;DHT22;11650;48.106;-1.696;2023-04-01T07:28:04;10.30;99.90
22968;DHT22;11650;48.106;-1.696;2023-04-01T07:30:44;10.50;99.90
22968;DHT22;11650;48.106;-1.696;2023-04-01T07:33:25;10.40;99.90
22968;DHT22;11650;48.106;-1.696;2023-04-01T07:35:59;10.60;99.90
22968;DHT22;11650;48.106;-1.696;2023-04-01T07:41:10;10.70;99.90
22968;DHT22;11650;48.106;-1.696;2023-04-01T07:52:04;10.90;99.90
22968;DHT22;11650;48.106;-1.696;2023-04-01T07:57:15;11.10;99.90
22968;DHT22;11650;48.106;-1.696;2023-04-01T08:05:25;11.70;99.90
22968;DHT22;11650;48.106;-1.696;2023-04-01T08:11:06;11.50;99.90
22968;DHT22;11650;48.106;-1.696;2023-04-01T08:13:44;11.50;99.90
22968;DHT22;11650;48.106;-1.696;2023-04-01T08:16:35;11.40;99.90
22968;DHT22;11650;48.106;-1.696;2023-04-01T08:21:52;11.40;99.90
22968;DHT22;11650;48.106;-1.696;2023-04-01T08:24:42;11.60;99.90
22968;DHT22;11650;48.106;-1.696;2023-04-01T08:27:24;11.70;99.90
22968;DHT22;11650;48.106;-1.696;2023-04-01T08:29:58;11.60;99.90
22968;DHT22;11650;48.106;-1.696;2023-04-01T08:32:30;11.50;99.90
22968;DHT22;11650;48.106;-1.696;2023-04-01T08:35:08;11.50;99.90
22968;DHT22;11650;48.106;-1.696;2023-04-01T08:37:39;11.50;99.90
22968;DHT22;11650;48.106;-1.696;2023-04-01T08:40:43;11.50;99.90
22968;DHT22;11650;48.106;-1.696;2023-04-01T08:43:41;11.50;99.90
22968;DHT22;11650;48.106;-1.696;2023-04-01T08:46:33;11.50;99.90
22968;DHT22;11650;48.106;-1.696;2023-04-01T08:55:38;11.60;99.90
22968;DHT22;11650;48.106;-1.696;2023-04-01T09:06:55;12.10;99.90
22968;DHT22;11650;48.106;-1.696;2023-04-01T09:18:20;12.40;99.90
22968;DHT22;11650;48.106;-1.696;2023-04-01T09:26:10;12.20;99.90
22968;DHT22;11650;48.106;-1.696;2023-04-01T09:37:18;12.10;99.90
22968;DHT22;11650;48.106;-1.696;2023-04-01T09:42:41;12.00;99.90
22968;DHT22;11650;48.106;-1.696;2023-04-01T09:50:35;11.80;99.90
22968;DHT22;11650;48.106;-1.696;2023-04-01T09:58:58;12.50;99.90
22968;DHT22;11650;48.106;-1.696;2023-04-01T10:41:56;12.80;99.90
22968;DHT22;11650;48.106;-1.696;2023-04-01T10:45:18;12.90;99.90
22968;DHT22;11650;48.106;-1.696;2023-04-01T10:53:45;13.30;99.90
22968;DHT22;11650;48.106;-1.696;2023-04-01T10:56:42;13.40;99.90
22968;DHT22;11650;48.106;-1.696;2023-04-01T11:10:25;13.60;99.90
22968;DHT22;11650;48.106;-1.696;2023-04-01T11:13:14;13.90;99.90
22968;DHT22;11650;48.106;-1.696;2023-04-01T11:16:13;14.10;99.90
22968;DHT22;11650;48.106;-1.696;2023-04-01T11:24:41;13.90;99.90
22968;DHT22;11650;48.106;-1.696;2023-04-01T11:58:09;12.30;99.90
22968;DHT22;11650;48.106;-1.696;2023-04-01T12:00:57;12.50;99.90
22968;DHT22;11650;48.106;-1.696;2023-04-01T12:15:03;13.10;99.90
22968;DHT22;11650;48.106;-1.696;2023-04-01T12:20:46;13.50;99.90
22968;DHT22;11650;48.106;-1.696;2023-04-01T12:23:35;13.60;99.90
22968;DHT22;11650;48.106;-1.696;2023-04-01T12:26:10;14.00;99.90
22968;DHT22;11650;48.106;-1.696;2023-04-01T12:28:44;14.50;99.90
22968;DHT22;11650;48.106;-1.696;2023-04-01T12:34:27;14.90;99.90
22968;DHT22;11650;48.106;-1.696;2023-04-01T12:40:06;14.90;99.90
22968;DHT22;11650;48.106;-1.696;2023-04-01T12:45:32;13.40;99.90
22968;DHT22;11650;48.106;-1.696;2023-04-01T12:56:59;15.00;99.90
22968;DHT22;11650;48.106;-1.696;2023-04-01T13:08:10;13.70;99.90
22968;DHT22;11650;48.106;-1.696;2023-04-01T13:16:01;12.80;99.90
22968;DHT22;11650;48.106;-1.696;2023-04-01T13:18:43;13.40;99.90
22968;DHT22;11650;48.106;-1.696;2023-04-01T13:21:28;13.10;99.90
22968;DHT22;11650;48.106;-1.696;2023-04-01T13:27:20;12.80;99.90
22968;DHT22;11650;48.106;-1.696;2023-04-01T13:30:11;12.80;99.90
22968;DHT22;11650;48.106;-1.696;2023-04-01T13:35:35;13.10;99.90
22968;DHT22;11650;48.106;-1.696;2023-04-01T13:55:18;14.90;99.90
22968;DHT22;11650;48.106;-1.696;2023-04-01T14:09:15;16.10;99.90
22968;DHT22;11650;48.106;-1.696;2023-04-01T14:34:20;15.90;99.90
22968;DHT22;11650;48.106;-1.696;2023-04-01T14:44:56;14.80;99.90
22968;DHT22;11650;48.106;-1.696;2023-04-01T14:47:53;14.70;99.90
22968;DHT22;11650;48.106;-1.696;2023-04-01T14:50:40;14.40;99.90
22968;DHT22;11650;48.106;-1.696;2023-04-01T14:53:35;15.00;99.90
22968;DHT22;11650;48.106;-1.696;2023-04-01T14:56:04;16.90;99.90
22968;DHT22;11650;48.106;-1.696;2023-04-01T15:12:33;17.20;99.90
22968;DHT22;11650;48.106;-1.696;2023-04-01T15:20:47;19.90;99.90
22968;DHT22;11650;48.106;-1.696;2023-04-01T15:26:43;20.00;99.90
22968;DHT22;11650;48.106;-1.696;2023-04-01T15:29:36;19.70;99.90
22968;DHT22;11650;48.106;-1.696;2023-04-01T15:32:38;21.00;99.90
22968;DHT22;11650;48.106;-1.696;2023-04-01T15:35:29;20.20;99.90
22968;DHT22;11650;48.106;-1.696;2023-04-01T15:43:31;19.80;99.90
22968;DHT22;11650;48.106;-1.696;2023-04-01T15:52:13;18.00;99.90
22968;DHT22;11650;48.106;-1.696;2023-04-01T16:29:53;17.30;99.90
22968;DHT22;11650;48.106;-1.696;2023-04-01T16:32:57;16.30;99.90
22968;DHT22;11650;48.106;-1.696;2023-04-01T16:35:59;15.90;99.90
22968;DHT22;11650;48.106;-1.696;2023-04-01T16:41:46;15.00;99.90
22968;DHT22;11650;48.106;-1.696;2023-04-01T16:44:24;14.80;99.90
22968;DHT22;11650;48.106;-1.696;2023-04-01T16:47:05;14.60;99.90
22968;DHT22;11650;48.106;-1.696;2023-04-01T16:52:59;14.40;99.90
22968;DHT22;11650;48.106;-1.696;2023-04-01T16:55:51;14.30;99.90
22968;DHT22;11650;48.106;-1.696;2023-04-01T16:58:27;14.30;99.90
22968;DHT22;11650;48.106;-1.696;2023-04-01T17:01:27;14.40;99.90
22968;DHT22;11650;48.106;-1.696;2023-04-01T17:04:04;14.70;99.90
22968;DHT22;11650;48.106;-1.696;2023-04-01T17:06:38;15.30;99.90
22968;DHT22;11650;48.106;-1.696;2023-04-01T17:12:17;19.90;99.90
22968;DHT22;11650;48.106;-1.696;2023-04-01T17:22:54;18.60;99.90
22968;DHT22;11650;48.106;-1.696;2023-04-01T17:58:46;13.00;99.90
22968;DHT22;11650;48.106;-1.696;2023-04-01T18:09:44;13.40;99.90
22968;DHT22;11650;48.106;-1.696;2023-04-01T18:15:26;13.40;99.90
22968;DHT22;11650;48.106;-1.696;2023-04-01T18:26:12;12.80;99.90
22968;DHT22;11650;48.106;-1.696;2023-04-01T18:28:41;12.60;99.90
22968;DHT22;11650;48.106;-1.696;2023-04-01T18:31:17;12.50;99.90
22968;DHT22;11650;48.106;-1.696;2023-04-01T18:38:53;12.50;99.90
22968;DHT22;11650;48.106;-1.696;2023-04-01T18:42:23;12.50;99.90
22968;DHT22;11650;48.106;-1.696;2023-04-01T18:52:50;12.20;99.90
22968;DHT22;11650;48.106;-1.696;2023-04-01T18:57:55;12.10;99.90
22968;DHT22;11650;48.106;-1.696;2023-04-01T19:00:39;12.10;99.90
22968;DHT22;11650;48.106;-1.696;2023-04-01T19:05:48;12.00;99.90
22968;DHT22;11650;48.106;-1.696;2023-04-01T19:08:31;11.90;99.90
22968;DHT22;11650;48.106;-1.696;2023-04-01T19:11:19;11.90;99.90
22968;DHT22;11650;48.106;-1.696;2023-04-01T19:13:50;11.90;99.90
22968;DHT22;11650;48.106;-1.696;2023-04-01T19:16:42;11.80;99.90
22968;DHT22;11650;48.106;-1.696;2023-04-01T19:25:22;11.70;99.90
22968;DHT22;11650;48.106;-1.696;2023-04-01T19:27:53;11.70;99.90
22968;DHT22;11650;48.106;-1.696;2023-04-01T19:30:46;11.70;99.90
22968;DHT22;11650;48.106;-1.696;2023-04-01T19:36:49;11.60;99.90
22968;DHT22;11650;48.106;-1.696;2023-04-01T19:45:02;11.60;99.90
22968;DHT22;11650;48.106;-1.696;2023-04-01T19:47:57;11.60;99.90
22968;DHT22;11650;48.106;-1.696;2023-04-01T19:54:12;11.50;99.90
22968;DHT22;11650;48.106;-1.696;2023-04-01T19:56:22;11.50;99.90
22968;DHT22;11650;48.106;-1.696;2023-04-01T19:59:02;11.50;99.90
22968;DHT22;11650;48.106;-1.696;2023-04-01T20:01:40;11.40;99.90
22968;DHT22;11650;48.106;-1.696;2023-04-01T20:06:53;11.50;99.90
22968;DHT22;11650;48.106;-1.696;2023-04-01T20:14:58;11.50;99.90
22968;DHT22;11650;48.106;-1.696;2023-04-01T20:17:43;11.50;99.90
22968;DHT22;11650;48.106;-1.696;2023-04-01T20:55:06;11.00;99.90
22968;DHT22;11650;48.106;-1.696;2023-04-01T21:06:10;11.00;99.90
22968;DHT22;11650;48.106;-1.696;2023-04-01T21:11:27;10.80;99.90
22968;DHT22;11650;48.106;-1.696;2023-04-01T21:16:44;10.70;99.90
22968;DHT22;11650;48.106;-1.696;2023-04-01T21:30:42;10.50;99.90
22968;DHT22;11650;48.106;-1.696;2023-04-01T21:36:25;10.50;99.90
22968;DHT22;11650;48.106;-1.696;2023-04-01T21:42:00;10.60;99.90
22968;DHT22;11650;48.106;-1.696;2023-04-01T21:53:33;10.60;99.90
22968;DHT22;11650;48.106;-1.696;2023-04-01T22:02:11;10.70;99.90
22968;DHT22;11650;48.106;-1.696;2023-04-01T22:07:21;10.70;99.90
22968;DHT22;11650;48.106;-1.696;2023-04-01T22:15:19;10.80;99.90
22968;DHT22;11650;48.106;-1.696;2023-04-01T22:17:51;10.80;99.90
22968;DHT22;11650;48.106;-1.696;2023-04-01T22:25:56;10.90;99.90
22968;DHT22;11650;48.106;-1.696;2023-04-01T22:31:28;10.90;99.90
22968;DHT22;11650;48.106;-1.696;2023-04-01T22:34:06;10.90;99.90
22968;DHT22;11650;48.106;-1.696;2023-04-01T22:36:44;10.90;99.90
22968;DHT22;11650;48.106;-1.696;2023-04-01T22:42:14;10.70;99.90
22968;DHT22;11650;48.106;-1.696;2023-04-01T22:47:30;10.60;99.90
22968;DHT22;11650;48.106;-1.696;2023-04-01T22:52:45;10.50;99.90
22968;DHT22;11650;48.106;-1.696;2023-04-01T22:55:29;10.50;99.90
22968;DHT22;11650;48.106;-1.696;2023-04-01T22:58:03;10.50;99.90
22968;DHT22;11650;48.106;-1.696;2023-04-01T23:00:34;10.40;99.90
22968;DHT22;11650;48.106;-1.696;2023-04-01T23:03:22;10.40;99.90
22968;DHT22;11650;48.106;-1.696;2023-04-01T23:05:51;10.30;99.90
22968;DHT22;11650;48.106;-1.696;2023-04-01T23:10:54;10.20;99.90
22968;DHT22;11650;48.106;-1.696;2023-04-01T23:13:35;10.20;99.90
22968;DHT22;11650;48.106;-1.696;2023-04-01T23:16:06;10.10;99.90
22968;DHT22;11650;48.106;-1.696;2023-04-01T23:21:38;10.10;99.90
22968;DHT22;11650;48.106;-1.696;2023-04-01T23:24:39;10.10;99.90
22968;DHT22;11650;48.106;-1.696;2023-04-01T23:27:28;10.00;99.90
22968;DHT22;11650;48.106;-1.696;2023-04-01T23:29:56;10.10;99.90
22968;DHT22;11650;48.106;-1.696;2023-04-01T23:32:25;10.10;99.90
22968;DHT22;11650;48.106;-1.696;2023-04-01T23:35:00;10.00;99.90
22968;DHT22;11650;48.106;-1.696;2023-04-01T23:37:26;10.10;99.90
22968;DHT22;11650;48.106;-1.696;2023-04-01T23:39:54;10.10;99.90
22968;DHT22;11650;48.106;-1.696;2023-04-01T23:42:29;10.10;99.90
22968;DHT22;11650;48.106;-1.696;2023-04-01T23:44:58;10.10;99.90
22968;DHT22;11650;48.106;-1.696;2023-04-01T23:47:29;10.00;99.90
22968;DHT22;11650;48.106;-1.696;2023-04-01T23:50:02;10.10;99.90
22968;DHT22;11650;48.106;-1.696;2023-04-01T23:52:36;10.00;99.90
22968;DHT22;11650;48.106;-1.696;2023-04-01T23:58:01;10.10;99.90
